Terminal Aerodrome Forecast
Issued by NWS Cleveland, OH

Home | Current Version | Previous Version | Text Only | Print | Product List | Glossary On
Versions: 1 2 3 4 5 6 7 8 9 10 11 12 13 14 15 16 17
000
FTUS41 KCLE 080203 AAA
TAFMFD
TAF AMD
KMFD 080203Z 0802/0824 35006KT P6SM VCSH OVC025
      TEMPO 0802/0806 5SM BR OVC009
     FM081400 04007KT P6SM SCT007 OVC050
     FM082100 05005KT P6SM VCSH OVC050=

USA.gov is the U.S. government's official web portal to all federal, state and local government web resources and services.